createdAt,value
2023-02-02T00:02:25.126Z,8.80
2023-02-02T00:06:29.150Z,8.90
2023-02-02T00:10:30.287Z,8.90
2023-02-02T00:14:31.434Z,8.90
2023-02-02T00:18:32.602Z,8.80
2023-02-02T00:22:33.754Z,8.80
2023-02-02T00:26:36.612Z,8.70
2023-02-02T00:30:37.736Z,8.70
2023-02-02T00:34:38.869Z,8.80
2023-02-02T00:38:40.130Z,8.90
2023-02-02T00:42:42.582Z,8.90
2023-02-02T00:46:43.736Z,8.90
2023-02-02T00:50:45.112Z,8.90
2023-02-02T00:54:46.272Z,8.90
2023-02-02T00:58:47.421Z,8.80
2023-02-02T01:02:50.900Z,8.90
2023-02-02T01:06:51.969Z,8.80
2023-02-02T01:10:53.166Z,8.90
2023-02-02T01:14:54.311Z,8.90
2023-02-02T01:18:55.567Z,9.00
2023-02-02T01:22:56.712Z,8.90
2023-02-02T01:26:57.793Z,8.90
2023-02-02T01:31:02.876Z,8.90
2023-02-02T01:35:04.447Z,8.90
2023-02-02T01:39:05.776Z,8.90
2023-02-02T01:43:10.768Z,8.90
2023-02-02T01:47:12.513Z,8.90
2023-02-02T01:51:17.079Z,8.90
2023-02-02T01:55:22.170Z,8.80
2023-02-02T01:59:24.204Z,8.90
2023-02-02T02:03:28.068Z,8.80
2023-02-02T02:07:29.534Z,8.80
2023-02-02T02:11:32.491Z,8.80
2023-02-02T02:15:56.291Z,8.80
2023-02-02T02:20:35.075Z,8.80
2023-02-02T02:25:33.908Z,8.80
2023-02-02T02:30:00.151Z,8.80
2023-02-02T02:34:17.450Z,8.80
2023-02-02T02:38:50.769Z,8.80
2023-02-02T02:42:58.466Z,8.90
2023-02-02T02:47:00.348Z,8.90
2023-02-02T02:51:08.467Z,8.90
2023-02-02T02:55:11.403Z,8.80
2023-02-02T02:59:39.373Z,8.80
2023-02-02T03:04:13.632Z,8.80
2023-02-02T03:08:30.369Z,8.80
2023-02-02T03:12:31.437Z,8.90
2023-02-02T03:16:32.481Z,8.80
2023-02-02T03:20:33.859Z,8.80
2023-02-02T03:24:35.023Z,8.80
2023-02-02T03:28:36.353Z,8.80
2023-02-02T03:32:38.136Z,8.90
2023-02-02T03:36:39.309Z,8.90
2023-02-02T03:40:40.776Z,8.90
2023-02-02T03:44:41.907Z,8.90
2023-02-02T03:48:43.086Z,8.80
2023-02-02T03:52:44.224Z,8.90
2023-02-02T03:56:45.277Z,8.80
2023-02-02T04:00:46.426Z,8.90
2023-02-02T04:04:47.595Z,9.00
2023-02-02T04:08:48.753Z,8.90
2023-02-02T04:12:50.288Z,8.90
2023-02-02T04:16:51.542Z,8.90
2023-02-02T04:21:00.573Z,8.90
2023-02-02T04:25:01.768Z,8.90
2023-02-02T04:29:03.212Z,8.90
2023-02-02T04:33:04.372Z,8.90
2023-02-02T04:37:05.527Z,8.90
2023-02-02T04:41:09.115Z,8.90
2023-02-02T04:45:10.815Z,8.90
2023-02-02T04:49:12.219Z,8.90
2023-02-02T04:53:13.373Z,8.90
2023-02-02T04:57:14.526Z,8.90
2023-02-02T05:01:18.142Z,9.10
2023-02-02T05:05:19.904Z,8.90
2023-02-02T05:09:21.053Z,8.90
2023-02-02T05:13:22.399Z,8.90
2023-02-02T05:17:23.628Z,9.00
2023-02-02T05:21:24.776Z,9.00
2023-02-02T05:25:26.184Z,9.00
2023-02-02T05:29:28.485Z,9.00
2023-02-02T05:33:29.628Z,8.90
2023-02-02T05:37:30.787Z,9.00
2023-02-02T05:41:32.038Z,9.10
2023-02-02T05:45:33.442Z,9.20
2023-02-02T05:49:34.625Z,9.10
2023-02-02T05:53:35.969Z,9.10
2023-02-02T05:57:37.126Z,9.10
2023-02-02T06:01:38.280Z,9.10
2023-02-02T06:05:39.431Z,9.10
2023-02-02T06:09:42.398Z,8.90
2023-02-02T06:13:45.950Z,9.00
2023-02-02T06:17:46.918Z,9.00
2023-02-02T06:21:48.210Z,9.00
2023-02-02T06:25:49.453Z,9.00
2023-02-02T06:29:50.591Z,9.00
2023-02-02T06:33:54.960Z,9.00
2023-02-02T06:37:57.424Z,8.90
2023-02-02T06:42:02.041Z,8.90
2023-02-02T06:46:01.519Z,8.90
2023-02-02T06:50:03.505Z,8.90
2023-02-02T06:54:04.871Z,8.90
2023-02-02T06:58:06.010Z,8.90
2023-02-02T07:02:11.429Z,8.90
2023-02-02T07:06:18.737Z,8.90
2023-02-02T07:11:09.211Z,9.00
2023-02-02T07:14:22.924Z,9.00
2023-02-02T07:18:24.134Z,9.00
2023-02-02T07:22:25.273Z,9.00
2023-02-02T07:26:27.055Z,9.00
2023-02-02T07:30:29.164Z,9.10
2023-02-02T07:34:30.329Z,9.00
2023-02-02T07:38:33.379Z,9.00
2023-02-02T07:42:34.547Z,9.10
2023-02-02T07:46:35.735Z,9.10
2023-02-02T07:50:37.758Z,9.10
2023-02-02T07:54:38.915Z,9.20
2023-02-02T07:58:40.910Z,9.10
2023-02-02T08:02:42.109Z,9.20
2023-02-02T08:06:43.360Z,9.20
2023-02-02T08:10:52.476Z,9.30
2023-02-02T08:14:53.775Z,9.30
2023-02-02T08:18:55.538Z,9.30
2023-02-02T08:22:56.693Z,9.40
2023-02-02T08:26:57.881Z,9.40
2023-02-02T08:31:09.084Z,9.40
2023-02-02T08:35:12.302Z,9.40
2023-02-02T08:39:13.750Z,9.40
2023-02-02T08:43:16.491Z,9.40
2023-02-02T08:47:17.756Z,9.50
2023-02-02T08:51:19.631Z,9.40
2023-02-02T08:55:21.448Z,9.40
2023-02-02T08:59:22.656Z,9.60
2023-02-02T09:03:23.830Z,9.60
2023-02-02T09:07:24.968Z,9.70
2023-02-02T09:11:27.158Z,9.70
2023-02-02T09:15:28.689Z,9.80
2023-02-02T09:19:29.880Z,9.70
2023-02-02T09:23:33.836Z,9.70
2023-02-02T09:27:40.128Z,9.70
2023-02-02T09:31:41.742Z,9.80
2023-02-02T09:35:42.825Z,9.80
2023-02-02T09:39:43.961Z,9.90
2023-02-02T09:43:57.984Z,10.00
2023-02-02T09:48:19.776Z,10.10
2023-02-02T09:52:24.734Z,10.00
2023-02-02T09:56:44.729Z,10.00
2023-02-02T10:01:17.487Z,10.10
2023-02-02T10:05:23.057Z,10.00
2023-02-02T10:09:47.836Z,10.10
2023-02-02T10:13:51.974Z,10.20
2023-02-02T10:18:20.869Z,10.10
2023-02-02T10:22:25.827Z,10.20
2023-02-02T10:26:42.972Z,10.10
2023-02-02T10:30:47.656Z,10.30
2023-02-02T10:35:13.994Z,10.30
2023-02-02T10:39:17.241Z,10.20
2023-02-02T10:43:45.529Z,10.20
2023-02-02T10:47:47.101Z,10.30
2023-02-02T10:51:58.362Z,10.30
2023-02-02T10:56:11.445Z,10.40
2023-02-02T11:00:23.386Z,10.50
2023-02-02T11:04:43.422Z,10.50
2023-02-02T11:08:47.597Z,10.70
2023-02-02T11:12:51.628Z,10.70
2023-02-02T11:17:02.439Z,10.70
2023-02-02T11:21:19.140Z,10.80
2023-02-02T11:25:33.299Z,10.80
2023-02-02T11:29:41.255Z,10.80
2023-02-02T11:33:42.417Z,10.90
2023-02-02T11:38:01.072Z,10.80
2023-02-02T11:42:21.181Z,10.70
2023-02-02T11:46:27.767Z,10.60
2023-02-02T11:50:28.984Z,10.50
2023-02-02T11:54:33.463Z,10.50
2023-02-02T11:58:47.564Z,10.60
2023-02-02T12:02:49.109Z,10.60
2023-02-02T12:06:50.285Z,10.70
2023-02-02T12:11:03.365Z,10.70
2023-02-02T12:15:19.198Z,10.60
2023-02-02T12:19:36.447Z,10.60
2023-02-02T12:23:46.944Z,10.60
2023-02-02T12:27:51.902Z,10.60
2023-02-02T12:32:00.345Z,10.70
2023-02-02T12:36:24.932Z,10.80
2023-02-02T12:40:44.680Z,10.60
2023-02-02T12:45:13.631Z,10.80
2023-02-02T12:49:50.688Z,10.70
2023-02-02T12:54:34.866Z,10.60
2023-02-02T12:58:32.140Z,10.50
2023-02-02T13:02:37.192Z,10.40
2023-02-02T13:06:51.118Z,10.60
2023-02-02T13:10:56.085Z,10.60
2023-02-02T13:15:01.836Z,10.60
2023-02-02T13:19:09.549Z,10.50
2023-02-02T13:23:20.380Z,10.50
2023-02-02T13:27:23.331Z,10.50
2023-02-02T13:31:46.733Z,10.70
2023-02-02T13:35:54.688Z,10.60
2023-02-02T13:39:59.630Z,10.60
2023-02-02T13:44:10.094Z,10.60
2023-02-02T13:48:17.811Z,10.70
2023-02-02T13:52:42.830Z,10.70
2023-02-02T13:57:02.403Z,10.60
2023-02-02T14:01:07.243Z,10.60
2023-02-02T14:05:24.501Z,10.60
2023-02-02T14:09:29.283Z,10.60
2023-02-02T14:14:04.176Z,10.70
2023-02-02T14:18:05.769Z,10.70
2023-02-02T14:22:14.107Z,10.80
2023-02-02T14:26:19.837Z,10.80
2023-02-02T14:30:25.017Z,10.90
2023-02-02T14:34:30.467Z,10.90
2023-02-02T14:38:58.342Z,10.90
2023-02-02T14:43:42.765Z,11.00
2023-02-02T14:48:18.030Z,11.00
2023-02-02T14:52:21.217Z,11.00
2023-02-02T14:56:41.967Z,10.90
2023-02-02T15:00:44.319Z,10.90
2023-02-02T15:04:49.175Z,10.80
2023-02-02T15:09:25.399Z,10.70
2023-02-02T15:13:30.408Z,10.90
2023-02-02T15:17:41.040Z,10.90
2023-02-02T15:21:45.403Z,10.90
2023-02-02T15:25:53.426Z,10.90
2023-02-02T15:29:57.817Z,11.00
2023-02-02T15:34:05.912Z,11.00
2023-02-02T15:38:10.889Z,11.00
2023-02-02T15:42:39.861Z,11.00
2023-02-02T15:46:41.258Z,10.90
2023-02-02T15:50:47.065Z,10.90
2023-02-02T15:54:51.830Z,11.00
2023-02-02T15:58:56.908Z,11.00
2023-02-02T16:03:07.974Z,10.90
2023-02-02T16:07:15.858Z,11.00
2023-02-02T16:11:20.091Z,10.90
2023-02-02T16:15:25.337Z,11.00
2023-02-02T16:19:26.754Z,11.00
2023-02-02T16:23:31.630Z,11.00
2023-02-02T16:27:37.022Z,10.90
2023-02-02T16:31:38.305Z,11.00
2023-02-02T16:35:41.277Z,10.90
2023-02-02T16:39:43.250Z,10.90
2023-02-02T16:43:44.414Z,10.90
2023-02-02T16:47:45.591Z,10.90
2023-02-02T16:51:48.458Z,10.90
2023-02-02T16:55:51.419Z,10.90
2023-02-02T16:59:55.810Z,10.80
2023-02-02T17:03:57.088Z,10.80
2023-02-02T17:08:03.092Z,10.70
2023-02-02T17:12:32.700Z,10.70
2023-02-02T17:16:24.133Z,10.70
2023-02-02T17:20:26.405Z,10.70
2023-02-02T17:24:28.733Z,10.70
2023-02-02T17:28:30.510Z,10.70
2023-02-02T17:32:31.777Z,10.70
2023-02-02T17:36:32.953Z,10.70
2023-02-02T17:40:34.305Z,10.60
2023-02-02T17:44:35.451Z,10.60
2023-02-02T17:48:36.618Z,10.50
2023-02-02T17:52:38.568Z,10.60
2023-02-02T17:56:40.634Z,10.50
2023-02-02T18:00:43.595Z,10.40
2023-02-02T18:04:45.808Z,10.40
2023-02-02T18:08:47.003Z,10.50
2023-02-02T18:12:48.146Z,10.40
2023-02-02T18:16:51.198Z,10.50
2023-02-02T18:20:52.256Z,10.50
2023-02-02T18:24:53.327Z,10.40
2023-02-02T18:28:54.479Z,10.40
2023-02-02T18:32:55.751Z,10.50
2023-02-02T18:36:58.318Z,10.40
2023-02-02T18:41:01.178Z,10.40
2023-02-02T18:45:04.095Z,10.30
2023-02-02T18:49:05.250Z,10.30
2023-02-02T18:53:06.562Z,10.30
2023-02-02T18:57:07.712Z,10.30
2023-02-02T19:01:12.065Z,10.20
2023-02-02T19:05:31.815Z,10.30
2023-02-02T19:09:32.964Z,10.30
2023-02-02T19:13:34.146Z,10.30
2023-02-02T19:17:35.822Z,10.30
2023-02-02T19:21:37.166Z,10.20
2023-02-02T19:25:45.576Z,10.20
2023-02-02T19:29:51.358Z,10.20
2023-02-02T19:33:52.802Z,10.10
2023-02-02T19:37:57.785Z,10.10
2023-02-02T19:42:00.355Z,10.10
2023-02-02T19:46:01.711Z,10.00
2023-02-02T19:50:15.400Z,10.00
2023-02-02T19:54:34.637Z,9.90
2023-02-02T19:58:37.680Z,10.00
2023-02-02T20:02:54.952Z,9.90
2023-02-02T20:06:59.334Z,9.80
2023-02-02T20:11:03.268Z,9.80
2023-02-02T20:15:26.567Z,9.80
2023-02-02T20:19:32.578Z,9.90
2023-02-02T20:23:43.015Z,9.80
2023-02-02T20:27:44.292Z,9.70
2023-02-02T20:31:46.842Z,9.70
2023-02-02T20:35:48.067Z,9.60
2023-02-02T20:39:56.147Z,9.60
2023-02-02T20:43:57.575Z,9.60
2023-02-02T20:47:58.938Z,9.60
2023-02-02T20:52:02.940Z,9.70
2023-02-02T20:56:04.705Z,9.70
2023-02-02T21:00:09.610Z,9.70
2023-02-02T21:04:12.108Z,9.60
2023-02-02T21:08:13.254Z,9.70
2023-02-02T21:12:14.855Z,9.80
2023-02-02T21:16:16.330Z,9.70
2023-02-02T21:20:18.117Z,9.70
2023-02-02T21:24:19.282Z,9.60
2023-02-02T21:28:21.239Z,9.70
2023-02-02T21:32:22.397Z,9.80
2023-02-02T21:36:38.939Z,9.80
2023-02-02T21:40:40.813Z,9.70
2023-02-02T21:44:56.961Z,9.80
2023-02-02T21:48:58.515Z,9.70
2023-02-02T21:53:19.283Z,9.60
2023-02-02T21:57:23.647Z,9.60
2023-02-02T22:01:34.425Z,9.50
2023-02-02T22:05:36.519Z,9.50
2023-02-02T22:09:40.573Z,9.60
2023-02-02T22:13:41.863Z,9.60
2023-02-02T22:17:44.946Z,9.60
2023-02-02T22:21:46.097Z,9.70
2023-02-02T22:25:49.623Z,9.60
2023-02-02T22:29:54.880Z,9.70
2023-02-02T22:33:56.351Z,9.70
2023-02-02T22:37:57.601Z,9.70
2023-02-02T22:41:58.787Z,9.60
2023-02-02T22:45:59.958Z,9.60
2023-02-02T22:50:01.127Z,9.60
2023-02-02T22:54:02.330Z,9.60
2023-02-02T22:58:03.482Z,9.50
2023-02-02T23:02:04.659Z,9.60
2023-02-02T23:06:05.817Z,9.50
2023-02-02T23:10:09.269Z,9.50
2023-02-02T23:14:11.160Z,9.60
2023-02-02T23:18:12.287Z,9.60
2023-02-02T23:22:13.447Z,9.60
2023-02-02T23:26:14.896Z,9.70
2023-02-02T23:30:16.876Z,9.70
2023-02-02T23:34:18.029Z,9.70
2023-02-02T23:38:19.227Z,9.60
2023-02-02T23:42:20.388Z,9.60
2023-02-02T23:46:21.909Z,9.60
2023-02-02T23:50:23.021Z,9.60
2023-02-02T23:54:25.108Z,9.50
2023-02-02T23:58:26.190Z,9.50
